sensor_id;sensor_type;location;lat;lon;timestamp;temperature;humidity
20335;DHT22;10325;51.468;5.804;2023-01-28T00:01:21;16.10;60.10
20335;DHT22;10325;51.468;5.804;2023-01-28T00:03:50;16.10;60.10
20335;DHT22;10325;51.468;5.804;2023-01-28T00:06:19;16.10;60.20
20335;DHT22;10325;51.468;5.804;2023-01-28T00:08:48;16.10;60.30
20335;DHT22;10325;51.468;5.804;2023-01-28T00:11:17;16.10;60.30
20335;DHT22;10325;51.468;5.804;2023-01-28T00:13:52;16.00;60.20
20335;DHT22;10325;51.468;5.804;2023-01-28T00:16:21;16.00;60.10
20335;DHT22;10325;51.468;5.804;2023-01-28T00:18:51;16.00;60.10
20335;DHT22;10325;51.468;5.804;2023-01-28T00:21:32;16.00;60.20
20335;DHT22;10325;51.468;5.804;2023-01-28T00:24:04;16.00;60.40
20335;DHT22;10325;51.468;5.804;2023-01-28T00:26:37;16.00;60.20
20335;DHT22;10325;51.468;5.804;2023-01-28T00:29:07;15.90;60.30
20335;DHT22;10325;51.468;5.804;2023-01-28T00:31:38;15.90;60.30
20335;DHT22;10325;51.468;5.804;2023-01-28T00:34:11;15.90;60.30
20335;DHT22;10325;51.468;5.804;2023-01-28T00:36:40;15.90;60.30
20335;DHT22;10325;51.468;5.804;2023-01-28T00:39:16;15.90;60.50
20335;DHT22;10325;51.468;5.804;2023-01-28T00:41:45;15.90;60.40
20335;DHT22;10325;51.468;5.804;2023-01-28T00:44:18;15.90;60.50
20335;DHT22;10325;51.468;5.804;2023-01-28T00:46:50;15.90;60.50
20335;DHT22;10325;51.468;5.804;2023-01-28T00:49:23;15.90;60.50
20335;DHT22;10325;51.468;5.804;2023-01-28T00:51:54;15.80;60.60
20335;DHT22;10325;51.468;5.804;2023-01-28T00:54:26;15.80;60.50
20335;DHT22;10325;51.468;5.804;2023-01-28T00:56:58;15.80;60.50
20335;DHT22;10325;51.468;5.804;2023-01-28T00:59:28;15.80;60.60
20335;DHT22;10325;51.468;5.804;2023-01-28T01:01:58;15.80;60.70
20335;DHT22;10325;51.468;5.804;2023-01-28T01:04:40;15.80;60.70
20335;DHT22;10325;51.468;5.804;2023-01-28T01:07:13;15.70;60.70
20335;DHT22;10325;51.468;5.804;2023-01-28T01:09:45;15.80;60.70
20335;DHT22;10325;51.468;5.804;2023-01-28T01:12:13;15.80;60.70
20335;DHT22;10325;51.468;5.804;2023-01-28T01:14:42;15.80;60.80
20335;DHT22;10325;51.468;5.804;2023-01-28T01:17:12;15.70;60.80
20335;DHT22;10325;51.468;5.804;2023-01-28T01:19:43;15.70;60.70
20335;DHT22;10325;51.468;5.804;2023-01-28T01:22:17;15.80;60.80
20335;DHT22;10325;51.468;5.804;2023-01-28T01:24:47;15.70;60.80
20335;DHT22;10325;51.468;5.804;2023-01-28T01:27:15;15.70;61.00
20335;DHT22;10325;51.468;5.804;2023-01-28T01:29:44;15.70;60.90
20335;DHT22;10325;51.468;5.804;2023-01-28T01:32:16;15.70;61.00
20335;DHT22;10325;51.468;5.804;2023-01-28T01:34:47;15.70;60.90
20335;DHT22;10325;51.468;5.804;2023-01-28T01:37:17;15.70;61.00
20335;DHT22;10325;51.468;5.804;2023-01-28T01:39:47;15.70;61.00
20335;DHT22;10325;51.468;5.804;2023-01-28T01:42:18;15.60;61.00
20335;DHT22;10325;51.468;5.804;2023-01-28T01:45:11;15.70;61.00
20335;DHT22;10325;51.468;5.804;2023-01-28T01:47:49;15.70;61.10
20335;DHT22;10325;51.468;5.804;2023-01-28T01:53:17;15.60;61.10
20335;DHT22;10325;51.468;5.804;2023-01-28T01:56:00;15.70;61.20
20335;DHT22;10325;51.468;5.804;2023-01-28T01:58:31;15.60;61.10
20335;DHT22;10325;51.468;5.804;2023-01-28T02:01:02;15.60;61.20
20335;DHT22;10325;51.468;5.804;2023-01-28T02:03:37;15.60;61.20
20335;DHT22;10325;51.468;5.804;2023-01-28T02:06:22;15.60;61.30
20335;DHT22;10325;51.468;5.804;2023-01-28T02:08:54;15.60;61.30
20335;DHT22;10325;51.468;5.804;2023-01-28T02:11:27;15.60;61.40
20335;DHT22;10325;51.468;5.804;2023-01-28T02:14:13;15.60;61.40
20335;DHT22;10325;51.468;5.804;2023-01-28T02:16:57;15.60;61.40
20335;DHT22;10325;51.468;5.804;2023-01-28T02:19:30;15.60;61.40
20335;DHT22;10325;51.468;5.804;2023-01-28T02:31:23;15.50;61.60
20335;DHT22;10325;51.468;5.804;2023-01-28T02:34:24;15.60;61.60
20335;DHT22;10325;51.468;5.804;2023-01-28T02:40:09;15.50;61.70
20335;DHT22;10325;51.468;5.804;2023-01-28T02:42:56;15.50;61.60
20335;DHT22;10325;51.468;5.804;2023-01-28T02:45:32;15.50;61.60
20335;DHT22;10325;51.468;5.804;2023-01-28T02:48:21;15.50;61.90
20335;DHT22;10325;51.468;5.804;2023-01-28T02:51:09;15.50;61.70
20335;DHT22;10325;51.468;5.804;2023-01-28T02:53:56;15.50;61.80
20335;DHT22;10325;51.468;5.804;2023-01-28T02:59:48;15.50;61.60
20335;DHT22;10325;51.468;5.804;2023-01-28T03:02:52;15.50;61.80
20335;DHT22;10325;51.468;5.804;2023-01-28T03:05:34;15.50;61.70
20335;DHT22;10325;51.468;5.804;2023-01-28T03:08:05;15.40;61.80
20335;DHT22;10325;51.468;5.804;2023-01-28T03:10:58;15.40;61.80
20335;DHT22;10325;51.468;5.804;2023-01-28T03:13:47;15.40;61.70
20335;DHT22;10325;51.468;5.804;2023-01-28T03:16:35;15.50;62.00
20335;DHT22;10325;51.468;5.804;2023-01-28T03:19:27;15.40;61.90
20335;DHT22;10325;51.468;5.804;2023-01-28T03:22:14;15.50;61.90
20335;DHT22;10325;51.468;5.804;2023-01-28T03:25:05;15.40;61.90
20335;DHT22;10325;51.468;5.804;2023-01-28T03:28:00;15.40;61.90
20335;DHT22;10325;51.468;5.804;2023-01-28T03:33:57;15.40;62.00
20335;DHT22;10325;51.468;5.804;2023-01-28T03:36:48;15.40;62.00
20335;DHT22;10325;51.468;5.804;2023-01-28T03:39:25;15.40;62.10
20335;DHT22;10325;51.468;5.804;2023-01-28T03:42:04;15.40;62.00
20335;DHT22;10325;51.468;5.804;2023-01-28T03:44:35;15.40;62.10
20335;DHT22;10325;51.468;5.804;2023-01-28T03:47:34;15.40;62.10
20335;DHT22;10325;51.468;5.804;2023-01-28T03:50:06;15.30;62.00
20335;DHT22;10325;51.468;5.804;2023-01-28T03:52:37;15.40;61.90
20335;DHT22;10325;51.468;5.804;2023-01-28T03:55:08;15.40;62.00
20335;DHT22;10325;51.468;5.804;2023-01-28T03:57:52;15.40;62.00
20335;DHT22;10325;51.468;5.804;2023-01-28T04:00:24;15.40;62.10
20335;DHT22;10325;51.468;5.804;2023-01-28T04:02:54;15.40;62.10
20335;DHT22;10325;51.468;5.804;2023-01-28T04:05:26;15.40;62.10
20335;DHT22;10325;51.468;5.804;2023-01-28T04:07:55;15.40;62.00
20335;DHT22;10325;51.468;5.804;2023-01-28T04:10:22;15.40;62.00
20335;DHT22;10325;51.468;5.804;2023-01-28T04:12:50;15.40;62.10
20335;DHT22;10325;51.468;5.804;2023-01-28T04:15:47;15.30;62.00
20335;DHT22;10325;51.468;5.804;2023-01-28T04:18:19;15.40;62.00
20335;DHT22;10325;51.468;5.804;2023-01-28T04:20:55;15.30;61.90
20335;DHT22;10325;51.468;5.804;2023-01-28T04:23:24;15.30;62.00
20335;DHT22;10325;51.468;5.804;2023-01-28T04:25:57;15.30;62.00
20335;DHT22;10325;51.468;5.804;2023-01-28T04:28:27;15.30;62.10
20335;DHT22;10325;51.468;5.804;2023-01-28T04:30:59;15.30;62.00
20335;DHT22;10325;51.468;5.804;2023-01-28T04:33:30;15.30;62.00
20335;DHT22;10325;51.468;5.804;2023-01-28T04:36:00;15.30;62.00
20335;DHT22;10325;51.468;5.804;2023-01-28T04:38:30;15.30;62.10
20335;DHT22;10325;51.468;5.804;2023-01-28T04:41:02;15.30;62.10
20335;DHT22;10325;51.468;5.804;2023-01-28T04:43:32;15.30;62.10
20335;DHT22;10325;51.468;5.804;2023-01-28T04:46:04;15.30;62.10
20335;DHT22;10325;51.468;5.804;2023-01-28T04:48:35;15.30;62.10
20335;DHT22;10325;51.468;5.804;2023-01-28T04:51:06;15.30;62.00
20335;DHT22;10325;51.468;5.804;2023-01-28T04:53:36;15.30;62.10
20335;DHT22;10325;51.468;5.804;2023-01-28T04:56:06;15.30;62.10
20335;DHT22;10325;51.468;5.804;2023-01-28T04:58:38;15.30;62.10
20335;DHT22;10325;51.468;5.804;2023-01-28T05:01:10;15.30;62.10
20335;DHT22;10325;51.468;5.804;2023-01-28T05:03:41;15.30;62.10
20335;DHT22;10325;51.468;5.804;2023-01-28T05:06:11;15.30;62.20
20335;DHT22;10325;51.468;5.804;2023-01-28T05:08:42;15.30;62.20
20335;DHT22;10325;51.468;5.804;2023-01-28T05:11:17;15.30;62.20
20335;DHT22;10325;51.468;5.804;2023-01-28T05:13:44;15.30;62.30
20335;DHT22;10325;51.468;5.804;2023-01-28T05:16:12;15.30;62.20
20335;DHT22;10325;51.468;5.804;2023-01-28T05:18:40;15.30;62.20
20335;DHT22;10325;51.468;5.804;2023-01-28T05:21:14;15.30;62.20
20335;DHT22;10325;51.468;5.804;2023-01-28T05:23:46;15.30;62.20
20335;DHT22;10325;51.468;5.804;2023-01-28T05:26:16;15.20;62.20
20335;DHT22;10325;51.468;5.804;2023-01-28T05:28:46;15.20;62.20
20335;DHT22;10325;51.468;5.804;2023-01-28T05:31:17;15.20;62.10
20335;DHT22;10325;51.468;5.804;2023-01-28T05:33:48;15.20;62.20
20335;DHT22;10325;51.468;5.804;2023-01-28T05:36:18;15.20;62.30
20335;DHT22;10325;51.468;5.804;2023-01-28T05:38:49;15.20;62.20
20335;DHT22;10325;51.468;5.804;2023-01-28T05:41:21;15.20;62.20
20335;DHT22;10325;51.468;5.804;2023-01-28T05:43:52;15.20;62.20
20335;DHT22;10325;51.468;5.804;2023-01-28T05:46:20;15.20;62.10
20335;DHT22;10325;51.468;5.804;2023-01-28T05:48:52;15.20;62.10
20335;DHT22;10325;51.468;5.804;2023-01-28T05:51:23;15.20;62.10
20335;DHT22;10325;51.468;5.804;2023-01-28T05:53:51;15.20;62.10
20335;DHT22;10325;51.468;5.804;2023-01-28T05:56:21;15.20;62.00
20335;DHT22;10325;51.468;5.804;2023-01-28T05:58:50;15.20;62.60
20335;DHT22;10325;51.468;5.804;2023-01-28T06:01:21;15.20;61.90
20335;DHT22;10325;51.468;5.804;2023-01-28T06:03:57;15.20;61.80
20335;DHT22;10325;51.468;5.804;2023-01-28T06:06:29;15.20;61.80
20335;DHT22;10325;51.468;5.804;2023-01-28T06:09:00;15.20;61.70
20335;DHT22;10325;51.468;5.804;2023-01-28T06:11:30;15.20;61.70
20335;DHT22;10325;51.468;5.804;2023-01-28T06:14:06;15.20;61.70
20335;DHT22;10325;51.468;5.804;2023-01-28T06:16:36;15.20;61.70
20335;DHT22;10325;51.468;5.804;2023-01-28T06:19:07;15.20;61.70
20335;DHT22;10325;51.468;5.804;2023-01-28T06:21:35;15.10;61.50
20335;DHT22;10325;51.468;5.804;2023-01-28T06:24:05;15.20;61.60
20335;DHT22;10325;51.468;5.804;2023-01-28T06:26:37;15.20;61.50
20335;DHT22;10325;51.468;5.804;2023-01-28T06:29:08;15.10;61.40
20335;DHT22;10325;51.468;5.804;2023-01-28T06:31:37;15.10;61.40
20335;DHT22;10325;51.468;5.804;2023-01-28T06:34:05;15.10;61.40
20335;DHT22;10325;51.468;5.804;2023-01-28T06:36:35;15.10;61.50
20335;DHT22;10325;51.468;5.804;2023-01-28T06:39:06;15.20;61.50
20335;DHT22;10325;51.468;5.804;2023-01-28T06:41:37;15.10;61.40
20335;DHT22;10325;51.468;5.804;2023-01-28T06:44:06;15.20;61.90
20335;DHT22;10325;51.468;5.804;2023-01-28T06:46:41;15.20;62.30
20335;DHT22;10325;51.468;5.804;2023-01-28T06:49:12;15.20;63.30
20335;DHT22;10325;51.468;5.804;2023-01-28T06:51:39;15.20;62.90
20335;DHT22;10325;51.468;5.804;2023-01-28T06:54:12;15.20;62.80
20335;DHT22;10325;51.468;5.804;2023-01-28T06:56:42;15.20;62.70
20335;DHT22;10325;51.468;5.804;2023-01-28T06:59:15;15.20;62.70
20335;DHT22;10325;51.468;5.804;2023-01-28T07:01:50;15.20;62.50
20335;DHT22;10325;51.468;5.804;2023-01-28T07:04:18;15.20;62.50
20335;DHT22;10325;51.468;5.804;2023-01-28T07:06:49;15.20;62.40
20335;DHT22;10325;51.468;5.804;2023-01-28T07:09:17;15.10;62.10
20335;DHT22;10325;51.468;5.804;2023-01-28T07:11:50;15.10;62.20
20335;DHT22;10325;51.468;5.804;2023-01-28T07:14:22;15.10;62.20
20335;DHT22;10325;51.468;5.804;2023-01-28T07:16:51;15.10;62.10
20335;DHT22;10325;51.468;5.804;2023-01-28T07:19:23;15.10;62.00
20335;DHT22;10325;51.468;5.804;2023-01-28T07:21:54;15.10;62.00
20335;DHT22;10325;51.468;5.804;2023-01-28T07:24:29;15.10;62.00
20335;DHT22;10325;51.468;5.804;2023-01-28T07:27:03;15.10;61.90
20335;DHT22;10325;51.468;5.804;2023-01-28T07:29:46;15.10;61.90
20335;DHT22;10325;51.468;5.804;2023-01-28T07:32:17;15.10;62.00
20335;DHT22;10325;51.468;5.804;2023-01-28T07:34:51;15.10;62.00
20335;DHT22;10325;51.468;5.804;2023-01-28T07:37:23;15.10;61.90
20335;DHT22;10325;51.468;5.804;2023-01-28T07:39:55;15.10;62.00
20335;DHT22;10325;51.468;5.804;2023-01-28T07:42:23;15.10;61.90
20335;DHT22;10325;51.468;5.804;2023-01-28T07:44:53;15.10;61.70
20335;DHT22;10325;51.468;5.804;2023-01-28T07:47:21;15.10;61.60
20335;DHT22;10325;51.468;5.804;2023-01-28T07:49:52;15.10;61.50
20335;DHT22;10325;51.468;5.804;2023-01-28T07:52:22;15.10;61.30
20335;DHT22;10325;51.468;5.804;2023-01-28T07:54:54;15.10;61.20
20335;DHT22;10325;51.468;5.804;2023-01-28T07:57:27;15.10;61.00
20335;DHT22;10325;51.468;5.804;2023-01-28T08:00:00;15.10;60.80
20335;DHT22;10325;51.468;5.804;2023-01-28T08:02:30;15.10;60.70
20335;DHT22;10325;51.468;5.804;2023-01-28T08:05:01;15.10;60.70
20335;DHT22;10325;51.468;5.804;2023-01-28T08:07:32;15.10;60.50
20335;DHT22;10325;51.468;5.804;2023-01-28T08:10:03;15.10;60.30
20335;DHT22;10325;51.468;5.804;2023-01-28T08:12:33;15.10;60.20
20335;DHT22;10325;51.468;5.804;2023-01-28T08:15:02;15.10;60.10
20335;DHT22;10325;51.468;5.804;2023-01-28T08:17:34;15.10;60.00
20335;DHT22;10325;51.468;5.804;2023-01-28T08:20:04;15.10;59.90
20335;DHT22;10325;51.468;5.804;2023-01-28T08:22:35;15.10;59.90
20335;DHT22;10325;51.468;5.804;2023-01-28T08:25:03;15.10;59.70
20335;DHT22;10325;51.468;5.804;2023-01-28T08:27:34;15.10;59.60
20335;DHT22;10325;51.468;5.804;2023-01-28T08:30:05;15.10;59.60
20335;DHT22;10325;51.468;5.804;2023-01-28T08:32:42;15.10;59.40
20335;DHT22;10325;51.468;5.804;2023-01-28T08:35:11;15.00;59.30
20335;DHT22;10325;51.468;5.804;2023-01-28T08:37:46;15.00;59.30
20335;DHT22;10325;51.468;5.804;2023-01-28T08:40:16;15.00;59.20
20335;DHT22;10325;51.468;5.804;2023-01-28T08:42:51;15.00;59.20
20335;DHT22;10325;51.468;5.804;2023-01-28T08:45:23;15.00;59.00
20335;DHT22;10325;51.468;5.804;2023-01-28T08:48:04;15.00;59.00
20335;DHT22;10325;51.468;5.804;2023-01-28T08:50:37;15.00;59.00
20335;DHT22;10325;51.468;5.804;2023-01-28T08:53:18;15.00;59.10
20335;DHT22;10325;51.468;5.804;2023-01-28T08:55:47;15.00;58.90
20335;DHT22;10325;51.468;5.804;2023-01-28T08:58:17;15.00;58.90
20335;DHT22;10325;51.468;5.804;2023-01-28T09:00:49;15.00;59.00
20335;DHT22;10325;51.468;5.804;2023-01-28T09:03:18;15.00;59.30
20335;DHT22;10325;51.468;5.804;2023-01-28T09:05:46;15.00;59.30
20335;DHT22;10325;51.468;5.804;2023-01-28T09:08:18;15.00;59.20
20335;DHT22;10325;51.468;5.804;2023-01-28T09:11:02;15.00;59.20
20335;DHT22;10325;51.468;5.804;2023-01-28T09:13:31;15.00;59.20
20335;DHT22;10325;51.468;5.804;2023-01-28T09:16:03;15.00;59.30
20335;DHT22;10325;51.468;5.804;2023-01-28T09:18:32;15.00;59.20
20335;DHT22;10325;51.468;5.804;2023-01-28T09:21:07;15.00;59.20
20335;DHT22;10325;51.468;5.804;2023-01-28T09:23:41;15.00;59.20
20335;DHT22;10325;51.468;5.804;2023-01-28T09:26:09;15.00;59.20
20335;DHT22;10325;51.468;5.804;2023-01-28T09:28:40;15.00;59.10
20335;DHT22;10325;51.468;5.804;2023-01-28T09:31:14;15.00;59.10
20335;DHT22;10325;51.468;5.804;2023-01-28T09:33:46;15.00;59.20
20335;DHT22;10325;51.468;5.804;2023-01-28T09:36:14;15.00;59.10
20335;DHT22;10325;51.468;5.804;2023-01-28T09:38:42;15.00;59.10
20335;DHT22;10325;51.468;5.804;2023-01-28T09:44:37;15.00;59.10
20335;DHT22;10325;51.468;5.804;2023-01-28T09:47:57;15.10;59.10
20335;DHT22;10325;51.468;5.804;2023-01-28T09:50:48;15.00;59.10
20335;DHT22;10325;51.468;5.804;2023-01-28T09:53:31;15.00;59.10
20335;DHT22;10325;51.468;5.804;2023-01-28T09:56:12;15.00;59.20
20335;DHT22;10325;51.468;5.804;2023-01-28T09:58:41;15.00;59.20
20335;DHT22;10325;51.468;5.804;2023-01-28T10:01:38;15.00;59.30
20335;DHT22;10325;51.468;5.804;2023-01-28T10:07:17;15.00;59.20
20335;DHT22;10325;51.468;5.804;2023-01-28T10:10:10;15.00;59.80
20335;DHT22;10325;51.468;5.804;2023-01-28T10:15:53;15.00;59.20
20335;DHT22;10325;51.468;5.804;2023-01-28T10:18:55;15.00;59.20
20335;DHT22;10325;51.468;5.804;2023-01-28T10:21:34;15.00;59.20
20335;DHT22;10325;51.468;5.804;2023-01-28T10:24:07;15.00;59.20
20335;DHT22;10325;51.468;5.804;2023-01-28T10:26:43;15.00;59.20
20335;DHT22;10325;51.468;5.804;2023-01-28T10:29:16;15.00;59.20
20335;DHT22;10325;51.468;5.804;2023-01-28T10:32:37;15.00;59.20
20335;DHT22;10325;51.468;5.804;2023-01-28T10:34:50;15.00;59.20
20335;DHT22;10325;51.468;5.804;2023-01-28T10:37:24;15.00;59.20
20335;DHT22;10325;51.468;5.804;2023-01-28T10:39:57;15.00;59.20
20335;DHT22;10325;51.468;5.804;2023-01-28T10:42:37;15.00;59.20
20335;DHT22;10325;51.468;5.804;2023-01-28T10:45:24;15.00;59.30
20335;DHT22;10325;51.468;5.804;2023-01-28T10:48:15;15.00;59.20
20335;DHT22;10325;51.468;5.804;2023-01-28T10:50:54;15.00;59.30
20335;DHT22;10325;51.468;5.804;2023-01-28T10:53:46;14.90;59.20
20335;DHT22;10325;51.468;5.804;2023-01-28T10:56:22;15.00;59.40
20335;DHT22;10325;51.468;5.804;2023-01-28T11:01:49;15.00;59.30
20335;DHT22;10325;51.468;5.804;2023-01-28T11:04:30;15.00;59.30
20335;DHT22;10325;51.468;5.804;2023-01-28T11:07:17;15.00;59.30
20335;DHT22;10325;51.468;5.804;2023-01-28T11:09:50;15.00;59.30
20335;DHT22;10325;51.468;5.804;2023-01-28T11:12:29;15.00;59.20
20335;DHT22;10325;51.468;5.804;2023-01-28T11:15:03;15.00;59.30
20335;DHT22;10325;51.468;5.804;2023-01-28T11:17:35;15.00;59.20
20335;DHT22;10325;51.468;5.804;2023-01-28T11:20:19;15.00;59.30
20335;DHT22;10325;51.468;5.804;2023-01-28T11:23:00;15.00;59.20
20335;DHT22;10325;51.468;5.804;2023-01-28T11:25:36;15.00;59.20
20335;DHT22;10325;51.468;5.804;2023-01-28T11:28:18;15.00;59.20
20335;DHT22;10325;51.468;5.804;2023-01-28T11:30:56;15.00;59.10
20335;DHT22;10325;51.468;5.804;2023-01-28T11:34:01;15.00;59.20
20335;DHT22;10325;51.468;5.804;2023-01-28T11:36:34;15.00;59.30
20335;DHT22;10325;51.468;5.804;2023-01-28T11:39:24;15.00;59.30
20335;DHT22;10325;51.468;5.804;2023-01-28T11:42:18;15.00;59.30
20335;DHT22;10325;51.468;5.804;2023-01-28T11:44:48;15.00;59.30
20335;DHT22;10325;51.468;5.804;2023-01-28T11:47:39;14.90;59.30
20335;DHT22;10325;51.468;5.804;2023-01-28T12:02:13;15.00;59.20
20335;DHT22;10325;51.468;5.804;2023-01-28T12:08:11;15.00;59.10
20335;DHT22;10325;51.468;5.804;2023-01-28T12:12:04;15.00;58.90
20335;DHT22;10325;51.468;5.804;2023-01-28T12:20:37;15.00;59.00
20335;DHT22;10325;51.468;5.804;2023-01-28T12:23:45;15.00;59.00
20335;DHT22;10325;51.468;5.804;2023-01-28T12:41:36;15.00;58.80
20335;DHT22;10325;51.468;5.804;2023-01-28T12:44:25;15.00;58.70
20335;DHT22;10325;51.468;5.804;2023-01-28T12:47:02;15.00;58.70
20335;DHT22;10325;51.468;5.804;2023-01-28T12:57:51;15.00;58.50
20335;DHT22;10325;51.468;5.804;2023-01-28T13:00:39;15.00;58.40
20335;DHT22;10325;51.468;5.804;2023-01-28T13:06:31;15.00;58.40
20335;DHT22;10325;51.468;5.804;2023-01-28T13:09:16;15.00;58.40
20335;DHT22;10325;51.468;5.804;2023-01-28T13:11:51;15.00;58.40
20335;DHT22;10325;51.468;5.804;2023-01-28T13:14:29;15.00;58.50
20335;DHT22;10325;51.468;5.804;2023-01-28T13:17:31;15.00;58.50
20335;DHT22;10325;51.468;5.804;2023-01-28T13:19:59;15.00;58.40
20335;DHT22;10325;51.468;5.804;2023-01-28T13:22:33;15.00;58.50
20335;DHT22;10325;51.468;5.804;2023-01-28T13:25:24;15.00;58.50
20335;DHT22;10325;51.468;5.804;2023-01-28T13:27:58;15.00;58.50
20335;DHT22;10325;51.468;5.804;2023-01-28T13:30:32;15.10;58.50
20335;DHT22;10325;51.468;5.804;2023-01-28T13:33:37;15.00;58.40
20335;DHT22;10325;51.468;5.804;2023-01-28T13:44:33;15.00;58.50
20335;DHT22;10325;51.468;5.804;2023-01-28T13:47:14;15.00;58.50
20335;DHT22;10325;51.468;5.804;2023-01-28T13:50:03;15.00;58.40
20335;DHT22;10325;51.468;5.804;2023-01-28T13:53:02;15.10;58.30
20335;DHT22;10325;51.468;5.804;2023-01-28T13:55:43;15.00;58.20
20335;DHT22;10325;51.468;5.804;2023-01-28T14:04:42;15.10;58.20
20335;DHT22;10325;51.468;5.804;2023-01-28T14:10:37;15.10;58.40
20335;DHT22;10325;51.468;5.804;2023-01-28T14:19:19;15.00;58.40
20335;DHT22;10325;51.468;5.804;2023-01-28T14:21:50;15.10;58.50
20335;DHT22;10325;51.468;5.804;2023-01-28T14:24:24;15.10;58.40
20335;DHT22;10325;51.468;5.804;2023-01-28T14:30:53;15.10;58.30
20335;DHT22;10325;51.468;5.804;2023-01-28T14:33:26;15.10;58.30
20335;DHT22;10325;51.468;5.804;2023-01-28T14:35:58;15.10;58.30
20335;DHT22;10325;51.468;5.804;2023-01-28T14:38:25;15.10;58.30
20335;DHT22;10325;51.468;5.804;2023-01-28T14:40:56;15.10;58.30
20335;DHT22;10325;51.468;5.804;2023-01-28T14:43:28;15.10;58.20
20335;DHT22;10325;51.468;5.804;2023-01-28T14:46:38;15.10;58.20
20335;DHT22;10325;51.468;5.804;2023-01-28T14:52:43;15.10;58.20
20335;DHT22;10325;51.468;5.804;2023-01-28T14:58:10;15.10;58.20
20335;DHT22;10325;51.468;5.804;2023-01-28T15:01:01;15.10;58.20
20335;DHT22;10325;51.468;5.804;2023-01-28T15:03:33;15.10;58.20
20335;DHT22;10325;51.468;5.804;2023-01-28T15:06:16;15.10;58.20
20335;DHT22;10325;51.468;5.804;2023-01-28T15:08:44;15.10;58.20
20335;DHT22;10325;51.468;5.804;2023-01-28T15:11:25;15.10;58.30
20335;DHT22;10325;51.468;5.804;2023-01-28T15:13:59;15.10;58.30
20335;DHT22;10325;51.468;5.804;2023-01-28T15:16:29;15.10;58.40
20335;DHT22;10325;51.468;5.804;2023-01-28T15:19:04;15.10;58.40
20335;DHT22;10325;51.468;5.804;2023-01-28T15:21:36;15.10;58.40
20335;DHT22;10325;51.468;5.804;2023-01-28T15:24:12;15.10;58.40
20335;DHT22;10325;51.468;5.804;2023-01-28T15:26:47;15.10;58.40
20335;DHT22;10325;51.468;5.804;2023-01-28T15:29:36;15.10;58.40
20335;DHT22;10325;51.468;5.804;2023-01-28T15:32:30;15.10;58.40
20335;DHT22;10325;51.468;5.804;2023-01-28T15:34:59;15.10;58.40
20335;DHT22;10325;51.468;5.804;2023-01-28T15:37:28;15.10;58.50
20335;DHT22;10325;51.468;5.804;2023-01-28T15:40:02;15.10;58.40
20335;DHT22;10325;51.468;5.804;2023-01-28T15:42:39;15.10;58.50
20335;DHT22;10325;51.468;5.804;2023-01-28T15:45:24;15.10;58.40
20335;DHT22;10325;51.468;5.804;2023-01-28T15:48:02;15.10;58.40
20335;DHT22;10325;51.468;5.804;2023-01-28T15:50:34;15.10;58.40
20335;DHT22;10325;51.468;5.804;2023-01-28T15:53:15;15.10;58.40
20335;DHT22;10325;51.468;5.804;2023-01-28T15:55:45;15.10;58.40
20335;DHT22;10325;51.468;5.804;2023-01-28T15:58:30;15.10;58.40
20335;DHT22;10325;51.468;5.804;2023-01-28T16:01:12;15.10;58.40
20335;DHT22;10325;51.468;5.804;2023-01-28T16:03:45;15.10;58.50
20335;DHT22;10325;51.468;5.804;2023-01-28T16:06:20;15.10;58.40
20335;DHT22;10325;51.468;5.804;2023-01-28T16:09:02;15.10;58.40
20335;DHT22;10325;51.468;5.804;2023-01-28T16:11:39;15.10;58.40
20335;DHT22;10325;51.468;5.804;2023-01-28T16:14:27;15.10;58.40
20335;DHT22;10325;51.468;5.804;2023-01-28T16:17:00;15.10;58.40
20335;DHT22;10325;51.468;5.804;2023-01-28T16:19:48;15.10;58.40
20335;DHT22;10325;51.468;5.804;2023-01-28T16:28:18;15.10;58.30
20335;DHT22;10325;51.468;5.804;2023-01-28T16:30:48;15.10;58.30
20335;DHT22;10325;51.468;5.804;2023-01-28T16:33:21;15.10;58.30
20335;DHT22;10325;51.468;5.804;2023-01-28T16:35:51;15.10;58.20
20335;DHT22;10325;51.468;5.804;2023-01-28T16:38:36;15.00;58.20
20335;DHT22;10325;51.468;5.804;2023-01-28T16:41:24;15.10;58.20
20335;DHT22;10325;51.468;5.804;2023-01-28T16:43:57;15.00;58.10
20335;DHT22;10325;51.468;5.804;2023-01-28T16:46:45;15.00;58.10
20335;DHT22;10325;51.468;5.804;2023-01-28T16:49:18;15.00;58.20
20335;DHT22;10325;51.468;5.804;2023-01-28T16:51:49;15.00;58.40
20335;DHT22;10325;51.468;5.804;2023-01-28T16:54:21;15.00;58.90
20335;DHT22;10325;51.468;5.804;2023-01-28T16:56:51;15.10;59.40
20335;DHT22;10325;51.468;5.804;2023-01-28T16:59:24;15.10;59.40
20335;DHT22;10325;51.468;5.804;2023-01-28T17:01:53;15.10;59.20
20335;DHT22;10325;51.468;5.804;2023-01-28T17:04:24;15.00;59.00
20335;DHT22;10325;51.468;5.804;2023-01-28T17:06:54;15.10;59.10
20335;DHT22;10325;51.468;5.804;2023-01-28T17:09:23;15.00;59.20
20335;DHT22;10325;51.468;5.804;2023-01-28T17:11:54;15.00;59.10
20335;DHT22;10325;51.468;5.804;2023-01-28T17:14:25;15.00;59.10
20335;DHT22;10325;51.468;5.804;2023-01-28T17:16:56;15.10;59.50
20335;DHT22;10325;51.468;5.804;2023-01-28T17:19:24;15.10;59.60
20335;DHT22;10325;51.468;5.804;2023-01-28T17:21:52;15.10;59.40
20335;DHT22;10325;51.468;5.804;2023-01-28T17:24:20;15.00;59.10
20335;DHT22;10325;51.468;5.804;2023-01-28T17:26:54;15.10;59.00
20335;DHT22;10325;51.468;5.804;2023-01-28T17:29:28;15.10;58.90
20335;DHT22;10325;51.468;5.804;2023-01-28T17:31:58;15.00;58.70
20335;DHT22;10325;51.468;5.804;2023-01-28T17:34:28;15.10;58.70
20335;DHT22;10325;51.468;5.804;2023-01-28T17:37:01;15.10;58.60
20335;DHT22;10325;51.468;5.804;2023-01-28T17:39:30;15.10;58.50
20335;DHT22;10325;51.468;5.804;2023-01-28T17:42:02;15.00;58.40
20335;DHT22;10325;51.468;5.804;2023-01-28T17:44:34;15.10;58.40
20335;DHT22;10325;51.468;5.804;2023-01-28T17:47:04;15.10;58.40
20335;DHT22;10325;51.468;5.804;2023-01-28T17:49:42;15.00;58.40
20335;DHT22;10325;51.468;5.804;2023-01-28T17:52:12;15.00;58.30
20335;DHT22;10325;51.468;5.804;2023-01-28T17:54:41;15.00;58.30
20335;DHT22;10325;51.468;5.804;2023-01-28T17:57:09;15.00;58.30
20335;DHT22;10325;51.468;5.804;2023-01-28T17:59:37;15.00;58.30
20335;DHT22;10325;51.468;5.804;2023-01-28T18:02:13;15.00;58.30
20335;DHT22;10325;51.468;5.804;2023-01-28T18:04:41;15.00;58.40
20335;DHT22;10325;51.468;5.804;2023-01-28T18:07:10;15.00;58.40
20335;DHT22;10325;51.468;5.804;2023-01-28T18:09:41;15.00;58.40
20335;DHT22;10325;51.468;5.804;2023-01-28T18:12:14;15.00;58.40
20335;DHT22;10325;51.468;5.804;2023-01-28T18:14:41;15.00;58.50
20335;DHT22;10325;51.468;5.804;2023-01-28T18:17:12;15.00;58.40
20335;DHT22;10325;51.468;5.804;2023-01-28T18:19:43;15.00;58.40
20335;DHT22;10325;51.468;5.804;2023-01-28T18:22:14;15.00;58.40
20335;DHT22;10325;51.468;5.804;2023-01-28T18:24:44;15.00;58.40